sensor_id;sensor_type;location;lat;lon;timestamp;P1;durP1;ratioP1;P2;durP2;ratioP2
75386;SDS011;63966;47.914;22.266;2022-12-28T00:01:20;26.27;;;12.10;;
75386;SDS011;63966;47.914;22.266;2022-12-28T00:04:25;29.98;;;12.45;;
75386;SDS011;63966;47.914;22.266;2022-12-28T00:07:30;23.92;;;12.48;;
75386;SDS011;63966;47.914;22.266;2022-12-28T00:10:34;25.55;;;10.98;;
75386;SDS011;63966;47.914;22.266;2022-12-28T00:13:58;28.37;;;11.53;;
75386;SDS011;63966;47.914;22.266;2022-12-28T00:17:03;22.17;;;10.50;;
75386;SDS011;63966;47.914;22.266;2022-12-28T00:20:06;25.92;;;11.23;;
75386;SDS011;63966;47.914;22.266;2022-12-28T00:23:10;24.15;;;11.25;;
75386;SDS011;63966;47.914;22.266;2022-12-28T00:26:14;36.70;;;17.47;;
75386;SDS011;63966;47.914;22.266;2022-12-28T00:29:17;30.25;;;15.27;;
75386;SDS011;63966;47.914;22.266;2022-12-28T00:32:21;27.92;;;12.95;;
75386;SDS011;63966;47.914;22.266;2022-12-28T00:35:27;21.58;;;10.43;;
75386;SDS011;63966;47.914;22.266;2022-12-28T00:38:33;25.33;;;10.77;;
75386;SDS011;63966;47.914;22.266;2022-12-28T00:41:40;28.17;;;12.40;;
75386;SDS011;63966;47.914;22.266;2022-12-28T00:44:44;22.75;;;11.60;;
75386;SDS011;63966;47.914;22.266;2022-12-28T00:47:50;25.65;;;12.32;;
75386;SDS011;63966;47.914;22.266;2022-12-28T00:51:01;31.77;;;13.25;;
75386;SDS011;63966;47.914;22.266;2022-12-28T00:54:06;27.23;;;15.00;;
75386;SDS011;63966;47.914;22.266;2022-12-28T00:57:10;25.58;;;13.55;;
75386;SDS011;63966;47.914;22.266;2022-12-28T01:00:14;23.33;;;12.03;;
75386;SDS011;63966;47.914;22.266;2022-12-28T01:03:18;23.38;;;11.63;;
75386;SDS011;63966;47.914;22.266;2022-12-28T01:06:21;22.80;;;10.98;;
75386;SDS011;63966;47.914;22.266;2022-12-28T01:09:27;21.05;;;10.65;;
75386;SDS011;63966;47.914;22.266;2022-12-28T01:12:30;19.90;;;10.17;;
75386;SDS011;63966;47.914;22.266;2022-12-28T01:15:39;17.42;;;9.82;;
75386;SDS011;63966;47.914;22.266;2022-12-28T01:18:44;17.77;;;9.07;;
75386;SDS011;63966;47.914;22.266;2022-12-28T01:21:49;20.20;;;8.95;;
75386;SDS011;63966;47.914;22.266;2022-12-28T01:24:53;18.02;;;8.20;;
75386;SDS011;63966;47.914;22.266;2022-12-28T01:27:58;18.42;;;8.82;;
75386;SDS011;63966;47.914;22.266;2022-12-28T01:31:03;17.40;;;7.93;;
75386;SDS011;63966;47.914;22.266;2022-12-28T01:34:11;17.75;;;8.05;;
75386;SDS011;63966;47.914;22.266;2022-12-28T01:37:15;19.42;;;8.73;;
75386;SDS011;63966;47.914;22.266;2022-12-28T01:40:18;20.52;;;8.45;;
75386;SDS011;63966;47.914;22.266;2022-12-28T01:47:01;19.23;;;9.93;;
75386;SDS011;63966;47.914;22.266;2022-12-28T01:50:11;20.23;;;9.50;;
75386;SDS011;63966;47.914;22.266;2022-12-28T01:53:21;25.98;;;12.90;;
75386;SDS011;63966;47.914;22.266;2022-12-28T01:56:25;30.67;;;13.20;;
75386;SDS011;63966;47.914;22.266;2022-12-28T01:59:31;30.25;;;12.90;;
75386;SDS011;63966;47.914;22.266;2022-12-28T02:02:40;31.23;;;13.33;;
75386;SDS011;63966;47.914;22.266;2022-12-28T02:05:48;32.17;;;13.18;;
75386;SDS011;63966;47.914;22.266;2022-12-28T02:08:56;21.75;;;10.10;;
75386;SDS011;63966;47.914;22.266;2022-12-28T02:12:07;17.55;;;7.70;;
75386;SDS011;63966;47.914;22.266;2022-12-28T02:15:15;15.73;;;6.87;;
75386;SDS011;63966;47.914;22.266;2022-12-28T02:18:24;11.90;;;6.15;;
75386;SDS011;63966;47.914;22.266;2022-12-28T02:28:50;19.63;;;6.90;;
75386;SDS011;63966;47.914;22.266;2022-12-28T02:35:47;14.32;;;5.97;;
75386;SDS011;63966;47.914;22.266;2022-12-28T02:39:04;15.10;;;6.15;;
75386;SDS011;63966;47.914;22.266;2022-12-28T02:42:13;16.10;;;6.40;;
75386;SDS011;63966;47.914;22.266;2022-12-28T02:49:23;23.42;;;9.48;;
75386;SDS011;63966;47.914;22.266;2022-12-28T02:52:51;20.73;;;9.02;;
75386;SDS011;63966;47.914;22.266;2022-12-28T03:07:13;22.77;;;10.60;;
75386;SDS011;63966;47.914;22.266;2022-12-28T03:10:59;18.90;;;8.37;;
75386;SDS011;63966;47.914;22.266;2022-12-28T03:16:58;19.48;;;8.10;;
75386;SDS011;63966;47.914;22.266;2022-12-28T03:20:22;15.00;;;7.25;;
75386;SDS011;63966;47.914;22.266;2022-12-28T03:23:46;19.47;;;8.07;;
75386;SDS011;63966;47.914;22.266;2022-12-28T03:27:10;17.48;;;7.45;;
75386;SDS011;63966;47.914;22.266;2022-12-28T03:30:35;15.38;;;7.50;;
75386;SDS011;63966;47.914;22.266;2022-12-28T03:34:01;15.73;;;7.30;;
75386;SDS011;63966;47.914;22.266;2022-12-28T03:37:15;21.73;;;7.13;;
75386;SDS011;63966;47.914;22.266;2022-12-28T03:40:40;20.48;;;8.75;;
75386;SDS011;63966;47.914;22.266;2022-12-28T03:43:56;23.85;;;9.75;;
75386;SDS011;63966;47.914;22.266;2022-12-28T03:47:09;22.73;;;9.85;;
75386;SDS011;63966;47.914;22.266;2022-12-28T03:50:15;37.55;;;17.65;;
75386;SDS011;63966;47.914;22.266;2022-12-28T03:53:41;23.63;;;10.45;;
75386;SDS011;63966;47.914;22.266;2022-12-28T03:56:50;21.30;;;8.07;;
75386;SDS011;63966;47.914;22.266;2022-12-28T03:59:58;19.27;;;7.70;;
75386;SDS011;63966;47.914;22.266;2022-12-28T04:03:02;18.75;;;7.55;;
75386;SDS011;63966;47.914;22.266;2022-12-28T04:06:06;52.10;;;16.65;;
75386;SDS011;63966;47.914;22.266;2022-12-28T04:09:13;25.50;;;9.75;;
75386;SDS011;63966;47.914;22.266;2022-12-28T04:12:17;17.27;;;7.77;;
75386;SDS011;63966;47.914;22.266;2022-12-28T04:15:38;18.00;;;7.47;;
75386;SDS011;63966;47.914;22.266;2022-12-28T04:18:43;21.88;;;9.35;;
75386;SDS011;63966;47.914;22.266;2022-12-28T04:21:47;19.55;;;8.57;;
75386;SDS011;63966;47.914;22.266;2022-12-28T04:24:50;32.70;;;14.23;;
75386;SDS011;63966;47.914;22.266;2022-12-28T04:27:56;49.65;;;15.95;;
75386;SDS011;63966;47.914;22.266;2022-12-28T04:31:18;14.30;;;6.03;;
75386;SDS011;63966;47.914;22.266;2022-12-28T04:34:38;14.55;;;6.00;;
75386;SDS011;63966;47.914;22.266;2022-12-28T04:37:49;11.63;;;5.07;;
75386;SDS011;63966;47.914;22.266;2022-12-28T04:40:53;13.77;;;6.18;;
75386;SDS011;63966;47.914;22.266;2022-12-28T04:43:56;14.27;;;6.90;;
75386;SDS011;63966;47.914;22.266;2022-12-28T04:46:59;15.27;;;6.78;;
75386;SDS011;63966;47.914;22.266;2022-12-28T04:50:03;13.00;;;5.63;;
75386;SDS011;63966;47.914;22.266;2022-12-28T04:53:07;16.33;;;6.85;;
75386;SDS011;63966;47.914;22.266;2022-12-28T04:56:11;11.80;;;5.47;;
75386;SDS011;63966;47.914;22.266;2022-12-28T04:59:15;13.02;;;5.88;;
75386;SDS011;63966;47.914;22.266;2022-12-28T05:02:18;12.93;;;5.13;;
75386;SDS011;63966;47.914;22.266;2022-12-28T05:05:22;16.98;;;5.65;;
75386;SDS011;63966;47.914;22.266;2022-12-28T05:08:25;10.07;;;4.63;;
75386;SDS011;63966;47.914;22.266;2022-12-28T05:11:29;14.35;;;6.40;;
75386;SDS011;63966;47.914;22.266;2022-12-28T05:14:33;12.18;;;5.15;;
75386;SDS011;63966;47.914;22.266;2022-12-28T05:17:38;14.05;;;5.75;;
75386;SDS011;63966;47.914;22.266;2022-12-28T05:20:42;15.27;;;6.25;;
75386;SDS011;63966;47.914;22.266;2022-12-28T05:23:45;14.67;;;6.20;;
75386;SDS011;63966;47.914;22.266;2022-12-28T05:26:50;12.88;;;5.85;;
75386;SDS011;63966;47.914;22.266;2022-12-28T05:29:53;13.18;;;5.85;;
75386;SDS011;63966;47.914;22.266;2022-12-28T05:32:56;13.80;;;5.88;;
75386;SDS011;63966;47.914;22.266;2022-12-28T05:36:07;14.57;;;6.78;;
75386;SDS011;63966;47.914;22.266;2022-12-28T05:39:21;14.55;;;6.50;;
75386;SDS011;63966;47.914;22.266;2022-12-28T05:42:24;14.30;;;6.85;;
75386;SDS011;63966;47.914;22.266;2022-12-28T05:45:28;13.47;;;6.03;;
75386;SDS011;63966;47.914;22.266;2022-12-28T05:48:32;16.63;;;6.72;;
75386;SDS011;63966;47.914;22.266;2022-12-28T05:51:36;19.15;;;7.03;;
75386;SDS011;63966;47.914;22.266;2022-12-28T05:54:42;14.77;;;7.73;;
75386;SDS011;63966;47.914;22.266;2022-12-28T05:57:46;21.70;;;9.80;;
75386;SDS011;63966;47.914;22.266;2022-12-28T06:00:49;23.55;;;9.73;;
75386;SDS011;63966;47.914;22.266;2022-12-28T06:03:54;20.17;;;9.82;;
75386;SDS011;63966;47.914;22.266;2022-12-28T06:06:59;19.13;;;8.88;;
75386;SDS011;63966;47.914;22.266;2022-12-28T06:10:02;17.58;;;8.32;;
75386;SDS011;63966;47.914;22.266;2022-12-28T06:13:06;15.23;;;6.88;;
75386;SDS011;63966;47.914;22.266;2022-12-28T06:16:11;13.90;;;5.97;;
75386;SDS011;63966;47.914;22.266;2022-12-28T06:19:19;16.63;;;6.82;;
75386;SDS011;63966;47.914;22.266;2022-12-28T06:22:22;16.25;;;7.95;;
75386;SDS011;63966;47.914;22.266;2022-12-28T06:25:26;18.07;;;7.97;;
75386;SDS011;63966;47.914;22.266;2022-12-28T06:28:30;18.85;;;8.60;;
75386;SDS011;63966;47.914;22.266;2022-12-28T06:31:35;15.23;;;6.65;;
75386;SDS011;63966;47.914;22.266;2022-12-28T06:34:40;13.70;;;6.25;;
75386;SDS011;63966;47.914;22.266;2022-12-28T06:37:43;15.00;;;6.95;;
75386;SDS011;63966;47.914;22.266;2022-12-28T06:40:48;15.02;;;7.35;;
75386;SDS011;63966;47.914;22.266;2022-12-28T06:44:12;77.45;;;29.60;;
75386;SDS011;63966;47.914;22.266;2022-12-28T06:47:15;53.97;;;20.70;;
75386;SDS011;63966;47.914;22.266;2022-12-28T06:50:19;21.98;;;9.45;;
75386;SDS011;63966;47.914;22.266;2022-12-28T06:53:23;40.45;;;20.45;;
75386;SDS011;63966;47.914;22.266;2022-12-28T06:56:28;23.27;;;11.23;;
75386;SDS011;63966;47.914;22.266;2022-12-28T06:59:33;20.03;;;9.20;;
75386;SDS011;63966;47.914;22.266;2022-12-28T07:02:36;15.82;;;7.20;;
75386;SDS011;63966;47.914;22.266;2022-12-28T07:05:40;16.50;;;7.55;;
75386;SDS011;63966;47.914;22.266;2022-12-28T07:08:44;16.20;;;6.90;;
75386;SDS011;63966;47.914;22.266;2022-12-28T07:11:49;18.45;;;10.18;;
75386;SDS011;63966;47.914;22.266;2022-12-28T07:14:52;19.75;;;11.20;;
75386;SDS011;63966;47.914;22.266;2022-12-28T07:17:59;25.17;;;11.95;;
75386;SDS011;63966;47.914;22.266;2022-12-28T07:21:04;20.43;;;9.40;;
75386;SDS011;63966;47.914;22.266;2022-12-28T07:24:09;18.30;;;8.63;;
75386;SDS011;63966;47.914;22.266;2022-12-28T07:27:13;14.20;;;7.60;;
75386;SDS011;63966;47.914;22.266;2022-12-28T07:30:16;16.60;;;9.35;;
75386;SDS011;63966;47.914;22.266;2022-12-28T07:33:20;18.15;;;8.07;;
75386;SDS011;63966;47.914;22.266;2022-12-28T07:36:24;32.80;;;16.50;;
75386;SDS011;63966;47.914;22.266;2022-12-28T07:39:29;27.95;;;15.00;;
75386;SDS011;63966;47.914;22.266;2022-12-28T07:42:32;16.95;;;10.30;;
75386;SDS011;63966;47.914;22.266;2022-12-28T07:45:36;26.63;;;12.63;;
75386;SDS011;63966;47.914;22.266;2022-12-28T07:48:40;19.77;;;11.23;;
75386;SDS011;63966;47.914;22.266;2022-12-28T07:51:45;16.83;;;10.13;;
75386;SDS011;63966;47.914;22.266;2022-12-28T07:54:48;21.02;;;9.88;;
75386;SDS011;63966;47.914;22.266;2022-12-28T07:57:51;20.95;;;9.85;;
75386;SDS011;63966;47.914;22.266;2022-12-28T08:01:02;22.05;;;11.75;;
75386;SDS011;63966;47.914;22.266;2022-12-28T08:04:13;20.00;;;10.68;;
75386;SDS011;63966;47.914;22.266;2022-12-28T08:07:18;29.50;;;13.47;;
75386;SDS011;63966;47.914;22.266;2022-12-28T08:10:21;21.48;;;10.88;;
75386;SDS011;63966;47.914;22.266;2022-12-28T08:13:25;23.77;;;12.25;;
75386;SDS011;63966;47.914;22.266;2022-12-28T08:16:29;17.60;;;8.93;;
75386;SDS011;63966;47.914;22.266;2022-12-28T08:19:35;22.35;;;9.52;;
75386;SDS011;63966;47.914;22.266;2022-12-28T08:22:38;21.27;;;9.10;;
75386;SDS011;63966;47.914;22.266;2022-12-28T08:25:41;21.17;;;9.25;;
75386;SDS011;63966;47.914;22.266;2022-12-28T08:28:46;32.00;;;12.05;;
75386;SDS011;63966;47.914;22.266;2022-12-28T08:31:50;27.40;;;12.48;;
75386;SDS011;63966;47.914;22.266;2022-12-28T08:34:54;24.37;;;11.20;;
75386;SDS011;63966;47.914;22.266;2022-12-28T08:37:57;23.60;;;10.52;;
75386;SDS011;63966;47.914;22.266;2022-12-28T08:41:02;20.20;;;10.18;;
75386;SDS011;63966;47.914;22.266;2022-12-28T08:44:06;22.40;;;9.43;;
75386;SDS011;63966;47.914;22.266;2022-12-28T08:47:09;23.60;;;11.45;;
75386;SDS011;63966;47.914;22.266;2022-12-28T08:50:13;25.87;;;11.87;;
75386;SDS011;63966;47.914;22.266;2022-12-28T08:53:21;62.33;;;23.42;;
75386;SDS011;63966;47.914;22.266;2022-12-28T08:56:26;32.72;;;15.63;;
75386;SDS011;63966;47.914;22.266;2022-12-28T08:59:31;26.52;;;12.45;;
75386;SDS011;63966;47.914;22.266;2022-12-28T09:02:37;21.00;;;9.63;;
75386;SDS011;63966;47.914;22.266;2022-12-28T09:05:41;28.90;;;12.27;;
75386;SDS011;63966;47.914;22.266;2022-12-28T09:08:47;36.97;;;14.40;;
75386;SDS011;63966;47.914;22.266;2022-12-28T09:12:07;26.42;;;11.60;;
75386;SDS011;63966;47.914;22.266;2022-12-28T09:15:10;21.00;;;10.20;;
75386;SDS011;63966;47.914;22.266;2022-12-28T09:18:14;16.43;;;8.37;;
75386;SDS011;63966;47.914;22.266;2022-12-28T09:21:17;22.67;;;9.73;;
75386;SDS011;63966;47.914;22.266;2022-12-28T09:24:22;18.23;;;9.27;;
75386;SDS011;63966;47.914;22.266;2022-12-28T18:47:32;102.67;;;43.07;;
75386;SDS011;63966;47.914;22.266;2022-12-28T18:50:37;69.68;;;30.77;;
75386;SDS011;63966;47.914;22.266;2022-12-28T18:53:40;32.10;;;14.32;;
75386;SDS011;63966;47.914;22.266;2022-12-28T18:56:45;25.10;;;12.27;;
75386;SDS011;63966;47.914;22.266;2022-12-28T18:59:53;20.63;;;9.80;;
75386;SDS011;63966;47.914;22.266;2022-12-28T19:02:57;22.10;;;10.27;;
75386;SDS011;63966;47.914;22.266;2022-12-28T19:06:03;35.70;;;17.05;;
75386;SDS011;63966;47.914;22.266;2022-12-28T19:09:09;41.40;;;18.60;;
75386;SDS011;63966;47.914;22.266;2022-12-28T19:12:13;51.13;;;21.65;;
75386;SDS011;63966;47.914;22.266;2022-12-28T19:15:17;43.30;;;18.77;;
75386;SDS011;63966;47.914;22.266;2022-12-28T19:18:26;25.60;;;11.93;;
75386;SDS011;63966;47.914;22.266;2022-12-28T19:21:33;20.27;;;9.27;;
75386;SDS011;63966;47.914;22.266;2022-12-28T19:24:38;20.65;;;9.52;;
75386;SDS011;63966;47.914;22.266;2022-12-28T19:27:42;19.58;;;8.88;;
75386;SDS011;63966;47.914;22.266;2022-12-28T19:30:45;20.53;;;9.67;;
75386;SDS011;63966;47.914;22.266;2022-12-28T19:33:49;23.45;;;9.98;;
75386;SDS011;63966;47.914;22.266;2022-12-28T19:36:53;20.58;;;10.25;;
75386;SDS011;63966;47.914;22.266;2022-12-28T19:39:57;20.40;;;10.00;;
75386;SDS011;63966;47.914;22.266;2022-12-28T19:43:02;19.17;;;9.10;;
75386;SDS011;63966;47.914;22.266;2022-12-28T19:46:15;22.45;;;9.85;;
75386;SDS011;63966;47.914;22.266;2022-12-28T19:49:20;22.55;;;10.90;;
75386;SDS011;63966;47.914;22.266;2022-12-28T19:52:23;24.65;;;10.95;;
75386;SDS011;63966;47.914;22.266;2022-12-28T19:55:27;24.30;;;12.67;;
75386;SDS011;63966;47.914;22.266;2022-12-28T19:58:31;29.48;;;12.18;;
75386;SDS011;63966;47.914;22.266;2022-12-28T20:01:35;19.17;;;10.32;;
75386;SDS011;63966;47.914;22.266;2022-12-28T20:04:40;21.38;;;10.48;;
75386;SDS011;63966;47.914;22.266;2022-12-28T20:07:44;25.93;;;11.53;;
75386;SDS011;63966;47.914;22.266;2022-12-28T20:10:54;24.75;;;12.95;;
75386;SDS011;63966;47.914;22.266;2022-12-28T20:13:58;26.73;;;12.25;;
75386;SDS011;63966;47.914;22.266;2022-12-28T20:17:04;31.98;;;14.95;;
75386;SDS011;63966;47.914;22.266;2022-12-28T20:20:12;36.17;;;14.80;;
75386;SDS011;63966;47.914;22.266;2022-12-28T20:23:19;48.85;;;19.17;;
75386;SDS011;63966;47.914;22.266;2022-12-28T20:26:23;59.13;;;24.38;;
75386;SDS011;63966;47.914;22.266;2022-12-28T20:29:30;44.77;;;18.50;;
75386;SDS011;63966;47.914;22.266;2022-12-28T20:32:38;50.17;;;19.52;;
75386;SDS011;63966;47.914;22.266;2022-12-28T20:36:02;45.17;;;19.70;;
75386;SDS011;63966;47.914;22.266;2022-12-28T20:39:11;54.08;;;21.25;;
75386;SDS011;63966;47.914;22.266;2022-12-28T20:42:15;82.80;;;29.90;;
75386;SDS011;63966;47.914;22.266;2022-12-28T20:45:37;59.30;;;24.20;;
75386;SDS011;63966;47.914;22.266;2022-12-28T20:48:43;44.03;;;20.50;;
75386;SDS011;63966;47.914;22.266;2022-12-28T20:51:47;43.88;;;19.55;;
75386;SDS011;63966;47.914;22.266;2022-12-28T20:54:51;37.90;;;18.65;;
75386;SDS011;63966;47.914;22.266;2022-12-28T20:57:55;37.27;;;16.87;;
75386;SDS011;63966;47.914;22.266;2022-12-28T21:01:05;50.88;;;21.67;;
75386;SDS011;63966;47.914;22.266;2022-12-28T21:04:10;75.65;;;31.48;;
75386;SDS011;63966;47.914;22.266;2022-12-28T21:07:14;78.10;;;29.23;;
75386;SDS011;63966;47.914;22.266;2022-12-28T21:10:18;61.13;;;23.43;;
75386;SDS011;63966;47.914;22.266;2022-12-28T21:13:21;53.85;;;22.25;;
75386;SDS011;63966;47.914;22.266;2022-12-28T21:16:25;60.20;;;25.27;;
75386;SDS011;63966;47.914;22.266;2022-12-28T21:19:29;48.60;;;19.67;;
75386;SDS011;63966;47.914;22.266;2022-12-28T21:22:33;54.80;;;23.95;;
75386;SDS011;63966;47.914;22.266;2022-12-28T21:25:36;55.45;;;25.33;;
75386;SDS011;63966;47.914;22.266;2022-12-28T21:28:40;36.08;;;18.40;;
75386;SDS011;63966;47.914;22.266;2022-12-28T21:31:44;48.10;;;21.52;;
75386;SDS011;63966;47.914;22.266;2022-12-28T21:34:48;32.10;;;15.60;;
75386;SDS011;63966;47.914;22.266;2022-12-28T21:37:52;31.42;;;14.88;;
75386;SDS011;63966;47.914;22.266;2022-12-28T21:40:59;43.13;;;17.80;;
75386;SDS011;63966;47.914;22.266;2022-12-28T21:44:11;35.50;;;17.15;;
75386;SDS011;63966;47.914;22.266;2022-12-28T21:47:16;60.70;;;23.23;;
75386;SDS011;63966;47.914;22.266;2022-12-28T21:50:20;72.70;;;27.30;;
75386;SDS011;63966;47.914;22.266;2022-12-28T21:53:35;55.38;;;21.48;;
75386;SDS011;63966;47.914;22.266;2022-12-28T22:07:02;26.00;;;12.43;;
75386;SDS011;63966;47.914;22.266;2022-12-28T22:10:06;35.92;;;14.65;;
75386;SDS011;63966;47.914;22.266;2022-12-28T22:13:28;29.05;;;13.85;;
75386;SDS011;63966;47.914;22.266;2022-12-28T22:16:32;27.58;;;14.70;;
75386;SDS011;63966;47.914;22.266;2022-12-28T22:19:36;29.40;;;12.90;;
75386;SDS011;63966;47.914;22.266;2022-12-28T22:22:40;24.20;;;11.90;;
75386;SDS011;63966;47.914;22.266;2022-12-28T22:25:44;25.10;;;11.50;;
75386;SDS011;63966;47.914;22.266;2022-12-28T22:28:47;27.73;;;12.65;;
75386;SDS011;63966;47.914;22.266;2022-12-28T22:31:51;30.92;;;15.13;;
75386;SDS011;63966;47.914;22.266;2022-12-28T22:34:54;29.25;;;13.77;;
75386;SDS011;63966;47.914;22.266;2022-12-28T22:37:58;23.80;;;11.38;;
75386;SDS011;63966;47.914;22.266;2022-12-28T22:41:01;27.52;;;12.80;;
75386;SDS011;63966;47.914;22.266;2022-12-28T22:44:05;30.80;;;14.18;;
75386;SDS011;63966;47.914;22.266;2022-12-28T22:47:08;27.77;;;13.40;;
75386;SDS011;63966;47.914;22.266;2022-12-28T22:54:06;27.67;;;13.27;;
75386;SDS011;63966;47.914;22.266;2022-12-28T22:57:09;29.50;;;14.60;;
75386;SDS011;63966;47.914;22.266;2022-12-28T23:00:13;28.55;;;14.05;;
75386;SDS011;63966;47.914;22.266;2022-12-28T23:03:17;29.55;;;15.00;;
75386;SDS011;63966;47.914;22.266;2022-12-28T23:06:21;32.60;;;15.40;;
75386;SDS011;63966;47.914;22.266;2022-12-28T23:09:24;33.13;;;15.87;;
75386;SDS011;63966;47.914;22.266;2022-12-28T23:12:28;30.92;;;15.35;;
75386;SDS011;63966;47.914;22.266;2022-12-28T23:15:31;38.58;;;16.40;;
75386;SDS011;63966;47.914;22.266;2022-12-28T23:18:35;32.08;;;15.60;;
75386;SDS011;63966;47.914;22.266;2022-12-28T23:21:57;32.20;;;16.20;;
75386;SDS011;63966;47.914;22.266;2022-12-28T23:25:21;37.83;;;17.52;;
75386;SDS011;63966;47.914;22.266;2022-12-28T23:28:44;39.28;;;16.30;;
75386;SDS011;63966;47.914;22.266;2022-12-28T23:31:48;36.63;;;16.37;;
75386;SDS011;63966;47.914;22.266;2022-12-28T23:34:51;36.40;;;16.15;;
75386;SDS011;63966;47.914;22.266;2022-12-28T23:37:55;40.17;;;18.88;;
75386;SDS011;63966;47.914;22.266;2022-12-28T23:40:58;40.72;;;18.20;;
75386;SDS011;63966;47.914;22.266;2022-12-28T23:44:25;38.47;;;18.77;;
75386;SDS011;63966;47.914;22.266;2022-12-28T23:47:29;38.45;;;18.30;;
75386;SDS011;63966;47.914;22.266;2022-12-28T23:50:33;37.45;;;18.13;;
75386;SDS011;63966;47.914;22.266;2022-12-28T23:53:36;37.17;;;17.42;;
75386;SDS011;63966;47.914;22.266;2022-12-28T23:56:40;37.23;;;18.93;;
75386;SDS011;63966;47.914;22.266;2022-12-28T23:59:44;30.20;;;15.55;;
